sensor_id;sensor_type;location;lat;lon;timestamp;P1;durP1;ratioP1;P2;durP2;ratioP2
20910;SDS011;10615;42.702;23.314;2024-01-06T00:00:14;67.60;;;39.33;;
20910;SDS011;10615;42.702;23.314;2024-01-06T00:01:16;66.22;;;41.10;;
20910;SDS011;10615;42.702;23.314;2024-01-06T00:02:17;68.82;;;38.88;;
20910;SDS011;10615;42.702;23.314;2024-01-06T00:03:18;73.63;;;44.00;;
20910;SDS011;10615;42.702;23.314;2024-01-06T00:04:18;71.18;;;43.17;;
20910;SDS011;10615;42.702;23.314;2024-01-06T00:05:19;69.75;;;41.55;;
20910;SDS011;10615;42.702;23.314;2024-01-06T00:06:20;74.75;;;43.35;;
20910;SDS011;10615;42.702;23.314;2024-01-06T00:07:20;73.22;;;43.17;;
20910;SDS011;10615;42.702;23.314;2024-01-06T00:08:21;74.63;;;43.63;;
20910;SDS011;10615;42.702;23.314;2024-01-06T00:09:22;72.35;;;42.80;;
20910;SDS011;10615;42.702;23.314;2024-01-06T00:10:23;72.47;;;43.25;;
20910;SDS011;10615;42.702;23.314;2024-01-06T00:11:24;73.68;;;41.90;;
20910;SDS011;10615;42.702;23.314;2024-01-06T00:12:24;69.63;;;43.50;;
20910;SDS011;10615;42.702;23.314;2024-01-06T00:13:25;77.13;;;44.05;;
20910;SDS011;10615;42.702;23.314;2024-01-06T00:14:26;74.95;;;44.72;;
20910;SDS011;10615;42.702;23.314;2024-01-06T00:15:27;72.63;;;43.00;;
20910;SDS011;10615;42.702;23.314;2024-01-06T00:16:27;73.95;;;44.08;;
20910;SDS011;10615;42.702;23.314;2024-01-06T00:17:28;74.05;;;43.88;;
20910;SDS011;10615;42.702;23.314;2024-01-06T00:18:29;74.47;;;44.97;;
20910;SDS011;10615;42.702;23.314;2024-01-06T00:19:30;72.47;;;43.40;;
20910;SDS011;10615;42.702;23.314;2024-01-06T00:20:30;75.90;;;42.92;;
20910;SDS011;10615;42.702;23.314;2024-01-06T00:21:31;71.53;;;44.47;;
20910;SDS011;10615;42.702;23.314;2024-01-06T00:22:32;75.05;;;44.63;;
20910;SDS011;10615;42.702;23.314;2024-01-06T00:23:32;79.07;;;47.08;;
20910;SDS011;10615;42.702;23.314;2024-01-06T00:24:33;75.20;;;45.88;;
20910;SDS011;10615;42.702;23.314;2024-01-06T00:25:34;75.80;;;45.38;;
20910;SDS011;10615;42.702;23.314;2024-01-06T00:26:35;74.72;;;45.25;;
20910;SDS011;10615;42.702;23.314;2024-01-06T00:27:36;67.75;;;44.88;;
20910;SDS011;10615;42.702;23.314;2024-01-06T00:28:38;76.50;;;46.10;;
20910;SDS011;10615;42.702;23.314;2024-01-06T00:29:39;71.75;;;44.70;;
20910;SDS011;10615;42.702;23.314;2024-01-06T00:30:40;75.53;;;45.65;;
20910;SDS011;10615;42.702;23.314;2024-01-06T00:31:40;82.30;;;46.58;;
20910;SDS011;10615;42.702;23.314;2024-01-06T00:32:41;79.80;;;46.83;;
20910;SDS011;10615;42.702;23.314;2024-01-06T00:33:42;80.13;;;45.55;;
20910;SDS011;10615;42.702;23.314;2024-01-06T00:34:43;76.05;;;45.60;;
20910;SDS011;10615;42.702;23.314;2024-01-06T00:35:44;82.13;;;47.15;;
20910;SDS011;10615;42.702;23.314;2024-01-06T00:36:45;72.13;;;46.38;;
20910;SDS011;10615;42.702;23.314;2024-01-06T00:37:46;73.93;;;44.63;;
20910;SDS011;10615;42.702;23.314;2024-01-06T00:38:46;75.97;;;45.63;;
20910;SDS011;10615;42.702;23.314;2024-01-06T00:39:47;71.47;;;45.53;;
20910;SDS011;10615;42.702;23.314;2024-01-06T00:40:48;74.20;;;46.78;;
20910;SDS011;10615;42.702;23.314;2024-01-06T00:41:49;80.90;;;47.65;;
20910;SDS011;10615;42.702;23.314;2024-01-06T00:42:49;70.78;;;44.17;;
20910;SDS011;10615;42.702;23.314;2024-01-06T00:43:50;72.95;;;45.50;;
20910;SDS011;10615;42.702;23.314;2024-01-06T00:44:51;71.18;;;42.80;;
20910;SDS011;10615;42.702;23.314;2024-01-06T00:45:52;72.60;;;44.17;;
20910;SDS011;10615;42.702;23.314;2024-01-06T00:46:52;74.78;;;44.00;;
20910;SDS011;10615;42.702;23.314;2024-01-06T00:47:53;72.30;;;43.83;;
20910;SDS011;10615;42.702;23.314;2024-01-06T00:48:54;66.22;;;41.53;;
20910;SDS011;10615;42.702;23.314;2024-01-06T00:49:55;61.75;;;39.85;;
20910;SDS011;10615;42.702;23.314;2024-01-06T00:50:55;67.55;;;41.00;;
20910;SDS011;10615;42.702;23.314;2024-01-06T00:51:56;65.82;;;40.40;;
20910;SDS011;10615;42.702;23.314;2024-01-06T00:52:57;63.72;;;39.97;;
20910;SDS011;10615;42.702;23.314;2024-01-06T00:53:58;69.00;;;41.05;;
20910;SDS011;10615;42.702;23.314;2024-01-06T00:54:58;68.93;;;40.00;;
20910;SDS011;10615;42.702;23.314;2024-01-06T00:55:59;68.78;;;40.63;;
20910;SDS011;10615;42.702;23.314;2024-01-06T00:57:00;67.72;;;40.42;;
20910;SDS011;10615;42.702;23.314;2024-01-06T00:58:01;63.58;;;39.17;;
20910;SDS011;10615;42.702;23.314;2024-01-06T00:59:01;67.10;;;39.53;;
20910;SDS011;10615;42.702;23.314;2024-01-06T01:00:03;64.07;;;39.75;;
20910;SDS011;10615;42.702;23.314;2024-01-06T01:01:05;76.68;;;41.33;;
20910;SDS011;10615;42.702;23.314;2024-01-06T01:02:06;71.25;;;43.42;;
20910;SDS011;10615;42.702;23.314;2024-01-06T01:03:07;69.40;;;41.22;;
20910;SDS011;10615;42.702;23.314;2024-01-06T01:04:08;67.40;;;40.55;;
20910;SDS011;10615;42.702;23.314;2024-01-06T01:05:08;63.55;;;39.53;;
20910;SDS011;10615;42.702;23.314;2024-01-06T01:06:09;64.00;;;38.38;;
20910;SDS011;10615;42.702;23.314;2024-01-06T01:07:10;64.93;;;41.00;;
20910;SDS011;10615;42.702;23.314;2024-01-06T01:08:12;65.85;;;41.08;;
20910;SDS011;10615;42.702;23.314;2024-01-06T01:09:13;68.10;;;41.50;;
20910;SDS011;10615;42.702;23.314;2024-01-06T01:10:14;70.93;;;41.22;;
20910;SDS011;10615;42.702;23.314;2024-01-06T01:11:15;69.20;;;40.78;;
20910;SDS011;10615;42.702;23.314;2024-01-06T01:12:16;67.75;;;40.00;;
20910;SDS011;10615;42.702;23.314;2024-01-06T01:13:16;64.78;;;39.42;;
20910;SDS011;10615;42.702;23.314;2024-01-06T01:14:17;67.82;;;39.58;;
20910;SDS011;10615;42.702;23.314;2024-01-06T01:15:18;70.53;;;40.45;;
20910;SDS011;10615;42.702;23.314;2024-01-06T01:16:19;68.90;;;40.65;;
20910;SDS011;10615;42.702;23.314;2024-01-06T01:17:20;65.85;;;40.05;;
20910;SDS011;10615;42.702;23.314;2024-01-06T01:18:21;67.13;;;42.40;;
20910;SDS011;10615;42.702;23.314;2024-01-06T01:19:21;69.82;;;42.47;;
20910;SDS011;10615;42.702;23.314;2024-01-06T01:20:22;76.18;;;43.22;;
20910;SDS011;10615;42.702;23.314;2024-01-06T01:21:23;66.72;;;40.60;;
20910;SDS011;10615;42.702;23.314;2024-01-06T01:22:24;69.85;;;41.05;;
20910;SDS011;10615;42.702;23.314;2024-01-06T01:23:25;66.05;;;39.88;;
20910;SDS011;10615;42.702;23.314;2024-01-06T01:24:26;63.10;;;39.42;;
20910;SDS011;10615;42.702;23.314;2024-01-06T01:25:27;65.55;;;39.78;;
20910;SDS011;10615;42.702;23.314;2024-01-06T01:26:28;65.03;;;39.97;;
20910;SDS011;10615;42.702;23.314;2024-01-06T01:27:29;66.63;;;40.90;;
20910;SDS011;10615;42.702;23.314;2024-01-06T01:28:30;67.63;;;41.35;;
20910;SDS011;10615;42.702;23.314;2024-01-06T01:29:30;74.00;;;42.47;;
20910;SDS011;10615;42.702;23.314;2024-01-06T01:30:31;67.43;;;42.17;;
20910;SDS011;10615;42.702;23.314;2024-01-06T01:31:32;71.25;;;42.63;;
20910;SDS011;10615;42.702;23.314;2024-01-06T01:32:33;70.80;;;43.20;;
20910;SDS011;10615;42.702;23.314;2024-01-06T01:33:33;70.57;;;42.08;;
20910;SDS011;10615;42.702;23.314;2024-01-06T01:34:34;69.45;;;42.28;;
20910;SDS011;10615;42.702;23.314;2024-01-06T01:35:35;69.82;;;42.25;;
20910;SDS011;10615;42.702;23.314;2024-01-06T01:36:36;65.57;;;41.35;;
20910;SDS011;10615;42.702;23.314;2024-01-06T01:37:36;68.43;;;42.08;;
20910;SDS011;10615;42.702;23.314;2024-01-06T01:38:37;69.43;;;41.22;;
20910;SDS011;10615;42.702;23.314;2024-01-06T01:39:38;70.95;;;40.10;;
20910;SDS011;10615;42.702;23.314;2024-01-06T01:40:39;70.50;;;41.53;;
20910;SDS011;10615;42.702;23.314;2024-01-06T01:41:40;66.00;;;38.72;;
20910;SDS011;10615;42.702;23.314;2024-01-06T01:42:42;61.15;;;39.00;;
20910;SDS011;10615;42.702;23.314;2024-01-06T01:43:44;67.53;;;40.50;;
20910;SDS011;10615;42.702;23.314;2024-01-06T01:44:46;65.97;;;38.78;;
20910;SDS011;10615;42.702;23.314;2024-01-06T01:45:48;62.80;;;39.40;;
20910;SDS011;10615;42.702;23.314;2024-01-06T01:46:53;64.90;;;39.20;;
20910;SDS011;10615;42.702;23.314;2024-01-06T01:47:54;59.15;;;38.88;;
20910;SDS011;10615;42.702;23.314;2024-01-06T01:48:55;72.65;;;40.72;;
20910;SDS011;10615;42.702;23.314;2024-01-06T01:49:57;67.65;;;40.90;;
20910;SDS011;10615;42.702;23.314;2024-01-06T01:50:58;69.10;;;42.40;;
20910;SDS011;10615;42.702;23.314;2024-01-06T01:51:59;78.85;;;45.60;;
20910;SDS011;10615;42.702;23.314;2024-01-06T01:53:00;68.75;;;43.92;;
20910;SDS011;10615;42.702;23.314;2024-01-06T01:54:01;72.15;;;42.03;;
20910;SDS011;10615;42.702;23.314;2024-01-06T01:55:03;65.90;;;40.83;;
20910;SDS011;10615;42.702;23.314;2024-01-06T01:56:04;60.10;;;38.05;;
20910;SDS011;10615;42.702;23.314;2024-01-06T01:57:06;62.85;;;38.45;;
20910;SDS011;10615;42.702;23.314;2024-01-06T01:58:07;58.25;;;37.78;;
20910;SDS011;10615;42.702;23.314;2024-01-06T01:59:12;59.45;;;37.22;;
20910;SDS011;10615;42.702;23.314;2024-01-06T02:00:14;63.20;;;38.70;;
20910;SDS011;10615;42.702;23.314;2024-01-06T02:01:15;63.50;;;37.15;;
20910;SDS011;10615;42.702;23.314;2024-01-06T02:02:16;66.07;;;40.97;;
20910;SDS011;10615;42.702;23.314;2024-01-06T02:03:18;61.85;;;38.65;;
20910;SDS011;10615;42.702;23.314;2024-01-06T02:04:19;60.83;;;39.33;;
20910;SDS011;10615;42.702;23.314;2024-01-06T02:05:20;57.10;;;38.20;;
20910;SDS011;10615;42.702;23.314;2024-01-06T02:06:20;62.50;;;38.88;;
20910;SDS011;10615;42.702;23.314;2024-01-06T02:07:21;64.50;;;38.95;;
20910;SDS011;10615;42.702;23.314;2024-01-06T02:08:22;61.85;;;39.08;;
20910;SDS011;10615;42.702;23.314;2024-01-06T02:09:23;54.80;;;35.17;;
20910;SDS011;10615;42.702;23.314;2024-01-06T02:10:27;56.97;;;36.65;;
20910;SDS011;10615;42.702;23.314;2024-01-06T02:11:29;65.00;;;38.42;;
20910;SDS011;10615;42.702;23.314;2024-01-06T02:12:30;58.28;;;36.03;;
20910;SDS011;10615;42.702;23.314;2024-01-06T02:13:34;62.38;;;37.22;;
20910;SDS011;10615;42.702;23.314;2024-01-06T02:14:35;64.47;;;38.67;;
20910;SDS011;10615;42.702;23.314;2024-01-06T02:15:36;47.95;;;29.85;;
20910;SDS011;10615;42.702;23.314;2024-01-06T02:16:37;50.03;;;30.48;;
20910;SDS011;10615;42.702;23.314;2024-01-06T02:17:38;55.22;;;33.88;;
20910;SDS011;10615;42.702;23.314;2024-01-06T02:18:40;56.83;;;36.40;;
20910;SDS011;10615;42.702;23.314;2024-01-06T02:19:41;58.08;;;36.95;;
20910;SDS011;10615;42.702;23.314;2024-01-06T02:20:43;59.25;;;36.35;;
20910;SDS011;10615;42.702;23.314;2024-01-06T02:21:48;57.20;;;35.28;;
20910;SDS011;10615;42.702;23.314;2024-01-06T02:22:50;55.92;;;36.15;;
20910;SDS011;10615;42.702;23.314;2024-01-06T02:23:50;64.22;;;36.20;;
20910;SDS011;10615;42.702;23.314;2024-01-06T02:24:51;59.83;;;36.40;;
20910;SDS011;10615;42.702;23.314;2024-01-06T02:25:52;57.42;;;36.97;;
20910;SDS011;10615;42.702;23.314;2024-01-06T02:26:53;59.47;;;36.45;;
20910;SDS011;10615;42.702;23.314;2024-01-06T02:27:53;59.90;;;36.78;;
20910;SDS011;10615;42.702;23.314;2024-01-06T02:28:54;60.70;;;39.47;;
20910;SDS011;10615;42.702;23.314;2024-01-06T02:29:55;60.67;;;37.88;;
20910;SDS011;10615;42.702;23.314;2024-01-06T02:30:56;60.08;;;38.90;;
20910;SDS011;10615;42.702;23.314;2024-01-06T02:31:57;66.43;;;41.90;;
20910;SDS011;10615;42.702;23.314;2024-01-06T02:32:58;68.07;;;41.03;;
20910;SDS011;10615;42.702;23.314;2024-01-06T02:33:59;60.40;;;40.15;;
20910;SDS011;10615;42.702;23.314;2024-01-06T02:35:00;72.97;;;43.05;;
20910;SDS011;10615;42.702;23.314;2024-01-06T02:36:01;61.90;;;41.03;;
20910;SDS011;10615;42.702;23.314;2024-01-06T02:37:01;63.40;;;41.55;;
20910;SDS011;10615;42.702;23.314;2024-01-06T02:38:02;66.72;;;41.17;;
20910;SDS011;10615;42.702;23.314;2024-01-06T02:39:03;65.82;;;41.05;;
20910;SDS011;10615;42.702;23.314;2024-01-06T02:40:04;66.03;;;41.78;;
20910;SDS011;10615;42.702;23.314;2024-01-06T02:41:05;62.38;;;41.58;;
20910;SDS011;10615;42.702;23.314;2024-01-06T02:42:06;66.38;;;41.45;;
20910;SDS011;10615;42.702;23.314;2024-01-06T02:43:07;68.97;;;42.55;;
20910;SDS011;10615;42.702;23.314;2024-01-06T02:44:07;65.68;;;40.70;;
20910;SDS011;10615;42.702;23.314;2024-01-06T02:45:08;66.93;;;42.72;;
20910;SDS011;10615;42.702;23.314;2024-01-06T02:46:09;67.47;;;41.90;;
20910;SDS011;10615;42.702;23.314;2024-01-06T02:47:10;77.53;;;44.03;;
20910;SDS011;10615;42.702;23.314;2024-01-06T02:48:11;64.55;;;42.33;;
20910;SDS011;10615;42.702;23.314;2024-01-06T02:49:12;65.88;;;41.63;;
20910;SDS011;10615;42.702;23.314;2024-01-06T02:50:12;71.43;;;41.20;;
20910;SDS011;10615;42.702;23.314;2024-01-06T02:51:13;65.93;;;41.60;;
20910;SDS011;10615;42.702;23.314;2024-01-06T02:52:14;65.82;;;41.88;;
20910;SDS011;10615;42.702;23.314;2024-01-06T02:53:15;69.40;;;42.92;;
20910;SDS011;10615;42.702;23.314;2024-01-06T02:54:15;67.93;;;41.83;;
20910;SDS011;10615;42.702;23.314;2024-01-06T02:55:16;67.57;;;42.38;;
20910;SDS011;10615;42.702;23.314;2024-01-06T02:56:17;71.43;;;40.53;;
20910;SDS011;10615;42.702;23.314;2024-01-06T02:57:17;69.28;;;40.60;;
20910;SDS011;10615;42.702;23.314;2024-01-06T02:58:18;58.97;;;37.22;;
20910;SDS011;10615;42.702;23.314;2024-01-06T02:59:19;55.70;;;36.40;;
20910;SDS011;10615;42.702;23.314;2024-01-06T03:00:20;61.30;;;38.00;;
20910;SDS011;10615;42.702;23.314;2024-01-06T03:01:21;57.72;;;36.90;;
20910;SDS011;10615;42.702;23.314;2024-01-06T03:02:21;55.28;;;34.80;;
20910;SDS011;10615;42.702;23.314;2024-01-06T03:03:22;55.25;;;34.50;;
20910;SDS011;10615;42.702;23.314;2024-01-06T03:04:23;56.58;;;36.00;;
20910;SDS011;10615;42.702;23.314;2024-01-06T03:05:24;53.55;;;34.67;;
20910;SDS011;10615;42.702;23.314;2024-01-06T03:06:25;55.50;;;35.13;;
20910;SDS011;10615;42.702;23.314;2024-01-06T03:07:27;55.78;;;35.10;;
20910;SDS011;10615;42.702;23.314;2024-01-06T03:08:27;58.63;;;35.58;;
20910;SDS011;10615;42.702;23.314;2024-01-06T03:09:28;54.58;;;33.55;;
20910;SDS011;10615;42.702;23.314;2024-01-06T03:10:29;58.50;;;34.25;;
20910;SDS011;10615;42.702;23.314;2024-01-06T03:11:30;52.22;;;29.40;;
20910;SDS011;10615;42.702;23.314;2024-01-06T03:12:30;62.22;;;35.72;;
20910;SDS011;10615;42.702;23.314;2024-01-06T03:13:31;71.93;;;47.38;;
20910;SDS011;10615;42.702;23.314;2024-01-06T03:14:35;49.10;;;30.52;;
20910;SDS011;10615;42.702;23.314;2024-01-06T03:15:36;54.85;;;33.47;;
20910;SDS011;10615;42.702;23.314;2024-01-06T03:16:37;41.88;;;24.55;;
20910;SDS011;10615;42.702;23.314;2024-01-06T03:17:38;38.35;;;23.67;;
20910;SDS011;10615;42.702;23.314;2024-01-06T03:18:38;41.22;;;25.65;;
20910;SDS011;10615;42.702;23.314;2024-01-06T03:19:39;45.45;;;25.35;;
20910;SDS011;10615;42.702;23.314;2024-01-06T03:20:40;38.60;;;23.23;;
20910;SDS011;10615;42.702;23.314;2024-01-06T03:21:40;44.00;;;24.80;;
20910;SDS011;10615;42.702;23.314;2024-01-06T03:22:41;41.90;;;24.45;;
20910;SDS011;10615;42.702;23.314;2024-01-06T03:23:43;43.97;;;23.25;;
20910;SDS011;10615;42.702;23.314;2024-01-06T03:24:43;38.17;;;20.98;;
20910;SDS011;10615;42.702;23.314;2024-01-06T03:25:44;37.17;;;20.40;;
20910;SDS011;10615;42.702;23.314;2024-01-06T03:26:45;35.97;;;20.80;;
20910;SDS011;10615;42.702;23.314;2024-01-06T03:27:45;41.40;;;26.02;;
20910;SDS011;10615;42.702;23.314;2024-01-06T03:28:48;34.25;;;21.58;;
20910;SDS011;10615;42.702;23.314;2024-01-06T03:29:49;39.60;;;22.17;;
20910;SDS011;10615;42.702;23.314;2024-01-06T03:30:50;36.30;;;21.08;;
20910;SDS011;10615;42.702;23.314;2024-01-06T03:31:51;30.52;;;18.38;;
20910;SDS011;10615;42.702;23.314;2024-01-06T03:32:52;37.75;;;20.60;;
20910;SDS011;10615;42.702;23.314;2024-01-06T03:33:52;34.15;;;18.55;;
20910;SDS011;10615;42.702;23.314;2024-01-06T03:34:55;27.98;;;17.92;;
20910;SDS011;10615;42.702;23.314;2024-01-06T03:35:56;34.80;;;19.42;;
20910;SDS011;10615;42.702;23.314;2024-01-06T03:36:57;28.23;;;16.73;;
20910;SDS011;10615;42.702;23.314;2024-01-06T03:37:57;31.58;;;18.52;;
20910;SDS011;10615;42.702;23.314;2024-01-06T03:38:58;32.08;;;22.08;;
20910;SDS011;10615;42.702;23.314;2024-01-06T03:39:59;40.38;;;24.80;;
20910;SDS011;10615;42.702;23.314;2024-01-06T03:41:00;37.78;;;24.55;;
20910;SDS011;10615;42.702;23.314;2024-01-06T03:42:00;38.45;;;23.35;;
20910;SDS011;10615;42.702;23.314;2024-01-06T03:43:03;36.45;;;22.38;;
20910;SDS011;10615;42.702;23.314;2024-01-06T03:44:04;39.03;;;22.90;;
20910;SDS011;10615;42.702;23.314;2024-01-06T03:45:04;36.83;;;21.33;;
20910;SDS011;10615;42.702;23.314;2024-01-06T03:46:05;31.90;;;20.15;;
20910;SDS011;10615;42.702;23.314;2024-01-06T03:47:06;38.63;;;23.65;;
20910;SDS011;10615;42.702;23.314;2024-01-06T03:48:07;41.13;;;24.05;;
20910;SDS011;10615;42.702;23.314;2024-01-06T03:49:08;37.15;;;22.58;;
20910;SDS011;10615;42.702;23.314;2024-01-06T03:50:08;30.95;;;17.95;;
20910;SDS011;10615;42.702;23.314;2024-01-06T03:51:10;27.77;;;18.50;;
20910;SDS011;10615;42.702;23.314;2024-01-06T03:52:12;33.08;;;18.50;;
20910;SDS011;10615;42.702;23.314;2024-01-06T03:53:14;36.47;;;22.23;;
20910;SDS011;10615;42.702;23.314;2024-01-06T03:54:14;42.03;;;22.25;;
20910;SDS011;10615;42.702;23.314;2024-01-06T03:55:15;32.13;;;21.00;;
20910;SDS011;10615;42.702;23.314;2024-01-06T03:56:16;33.42;;;20.92;;
20910;SDS011;10615;42.702;23.314;2024-01-06T03:57:18;34.50;;;22.02;;
20910;SDS011;10615;42.702;23.314;2024-01-06T03:58:19;39.83;;;24.13;;
20910;SDS011;10615;42.702;23.314;2024-01-06T03:59:19;36.95;;;23.27;;
20910;SDS011;10615;42.702;23.314;2024-01-06T04:00:20;40.17;;;23.48;;
20910;SDS011;10615;42.702;23.314;2024-01-06T04:01:21;40.17;;;24.30;;
20910;SDS011;10615;42.702;23.314;2024-01-06T04:02:22;36.60;;;23.08;;
20910;SDS011;10615;42.702;23.314;2024-01-06T04:03:23;40.13;;;23.92;;
20910;SDS011;10615;42.702;23.314;2024-01-06T04:04:24;39.58;;;24.70;;
20910;SDS011;10615;42.702;23.314;2024-01-06T04:05:25;41.75;;;24.98;;
20910;SDS011;10615;42.702;23.314;2024-01-06T04:06:26;43.10;;;25.10;;
20910;SDS011;10615;42.702;23.314;2024-01-06T04:07:26;41.53;;;24.80;;
20910;SDS011;10615;42.702;23.314;2024-01-06T04:08:27;44.13;;;24.60;;
20910;SDS011;10615;42.702;23.314;2024-01-06T04:09:28;36.67;;;23.40;;
20910;SDS011;10615;42.702;23.314;2024-01-06T04:10:28;40.97;;;24.70;;
20910;SDS011;10615;42.702;23.314;2024-01-06T04:11:29;38.92;;;24.52;;
20910;SDS011;10615;42.702;23.314;2024-01-06T04:12:30;47.63;;;25.85;;
20910;SDS011;10615;42.702;23.314;2024-01-06T04:13:31;50.78;;;32.33;;
20910;SDS011;10615;42.702;23.314;2024-01-06T04:14:31;54.13;;;34.65;;
20910;SDS011;10615;42.702;23.314;2024-01-06T04:15:32;54.03;;;34.75;;
20910;SDS011;10615;42.702;23.314;2024-01-06T04:16:33;47.97;;;31.35;;
20910;SDS011;10615;42.702;23.314;2024-01-06T04:17:34;42.97;;;29.75;;
20910;SDS011;10615;42.702;23.314;2024-01-06T04:18:35;52.63;;;29.63;;
20910;SDS011;10615;42.702;23.314;2024-01-06T04:19:36;46.70;;;29.90;;
20910;SDS011;10615;42.702;23.314;2024-01-06T04:20:37;51.95;;;31.00;;
20910;SDS011;10615;42.702;23.314;2024-01-06T04:21:38;47.70;;;30.02;;
20910;SDS011;10615;42.702;23.314;2024-01-06T04:22:38;46.30;;;29.20;;
20910;SDS011;10615;42.702;23.314;2024-01-06T04:23:39;44.35;;;28.60;;
20910;SDS011;10615;42.702;23.314;2024-01-06T04:24:40;51.13;;;30.25;;
20910;SDS011;10615;42.702;23.314;2024-01-06T04:25:40;52.30;;;32.30;;
20910;SDS011;10615;42.702;23.314;2024-01-06T04:26:41;59.53;;;32.47;;
20910;SDS011;10615;42.702;23.314;2024-01-06T04:27:44;54.72;;;34.90;;
20910;SDS011;10615;42.702;23.314;2024-01-06T04:28:46;59.92;;;37.38;;
20910;SDS011;10615;42.702;23.314;2024-01-06T04:29:47;63.80;;;37.92;;
20910;SDS011;10615;42.702;23.314;2024-01-06T04:30:48;66.63;;;42.15;;
20910;SDS011;10615;42.702;23.314;2024-01-06T04:31:49;69.70;;;42.83;;
20910;SDS011;10615;42.702;23.314;2024-01-06T04:32:49;72.68;;;42.38;;
20910;SDS011;10615;42.702;23.314;2024-01-06T04:33:50;66.85;;;42.22;;
20910;SDS011;10615;42.702;23.314;2024-01-06T04:34:51;69.40;;;43.63;;
20910;SDS011;10615;42.702;23.314;2024-01-06T04:35:52;70.35;;;42.67;;
20910;SDS011;10615;42.702;23.314;2024-01-06T04:36:53;70.65;;;42.67;;
20910;SDS011;10615;42.702;23.314;2024-01-06T04:37:54;67.30;;;42.85;;
20910;SDS011;10615;42.702;23.314;2024-01-06T04:38:54;69.93;;;43.10;;
20910;SDS011;10615;42.702;23.314;2024-01-06T04:39:55;72.72;;;44.10;;
20910;SDS011;10615;42.702;23.314;2024-01-06T04:40:57;69.78;;;42.08;;
20910;SDS011;10615;42.702;23.314;2024-01-06T04:41:57;66.95;;;41.60;;
20910;SDS011;10615;42.702;23.314;2024-01-06T04:42:58;67.70;;;40.28;;
20910;SDS011;10615;42.702;23.314;2024-01-06T04:43:59;71.90;;;43.72;;
20910;SDS011;10615;42.702;23.314;2024-01-06T04:45:00;70.13;;;43.38;;
20910;SDS011;10615;42.702;23.314;2024-01-06T04:46:00;72.15;;;46.17;;
20910;SDS011;10615;42.702;23.314;2024-01-06T04:47:02;75.53;;;45.20;;
20910;SDS011;10615;42.702;23.314;2024-01-06T04:48:03;70.85;;;46.17;;
20910;SDS011;10615;42.702;23.314;2024-01-06T04:49:04;75.07;;;46.40;;
20910;SDS011;10615;42.702;23.314;2024-01-06T04:50:05;78.63;;;45.85;;
20910;SDS011;10615;42.702;23.314;2024-01-06T04:51:06;73.63;;;45.17;;
20910;SDS011;10615;42.702;23.314;2024-01-06T04:52:10;76.47;;;47.50;;
20910;SDS011;10615;42.702;23.314;2024-01-06T04:53:11;80.13;;;49.42;;
20910;SDS011;10615;42.702;23.314;2024-01-06T04:54:11;76.78;;;49.35;;
20910;SDS011;10615;42.702;23.314;2024-01-06T04:55:12;77.72;;;48.53;;
20910;SDS011;10615;42.702;23.314;2024-01-06T04:56:13;79.57;;;50.17;;
20910;SDS011;10615;42.702;23.314;2024-01-06T04:57:13;74.75;;;47.95;;
20910;SDS011;10615;42.702;23.314;2024-01-06T04:58:15;82.85;;;49.65;;
20910;SDS011;10615;42.702;23.314;2024-01-06T04:59:16;78.97;;;48.47;;
20910;SDS011;10615;42.702;23.314;2024-01-06T05:00:17;74.30;;;49.75;;
20910;SDS011;10615;42.702;23.314;2024-01-06T05:01:18;81.70;;;50.38;;
20910;SDS011;10615;42.702;23.314;2024-01-06T05:02:18;70.38;;;47.05;;
20910;SDS011;10615;42.702;23.314;2024-01-06T05:03:19;82.70;;;50.05;;
20910;SDS011;10615;42.702;23.314;2024-01-06T05:04:20;80.97;;;49.85;;
20910;SDS011;10615;42.702;23.314;2024-01-06T05:05:21;77.95;;;46.92;;
20910;SDS011;10615;42.702;23.314;2024-01-06T05:06:22;74.05;;;47.72;;
20910;SDS011;10615;42.702;23.314;2024-01-06T05:07:23;77.45;;;49.50;;
20910;SDS011;10615;42.702;23.314;2024-01-06T05:08:24;80.22;;;50.83;;
20910;SDS011;10615;42.702;23.314;2024-01-06T05:09:25;83.57;;;51.47;;
20910;SDS011;10615;42.702;23.314;2024-01-06T05:10:26;79.22;;;50.55;;
20910;SDS011;10615;42.702;23.314;2024-01-06T05:11:26;81.50;;;52.63;;
20910;SDS011;10615;42.702;23.314;2024-01-06T05:12:27;78.35;;;48.80;;
20910;SDS011;10615;42.702;23.314;2024-01-06T05:13:28;80.95;;;48.78;;
20910;SDS011;10615;42.702;23.314;2024-01-06T05:14:28;74.22;;;48.10;;
20910;SDS011;10615;42.702;23.314;2024-01-06T05:15:29;76.63;;;47.95;;
20910;SDS011;10615;42.702;23.314;2024-01-06T05:16:30;75.00;;;47.38;;
20910;SDS011;10615;42.702;23.314;2024-01-06T05:17:31;77.95;;;49.13;;
20910;SDS011;10615;42.702;23.314;2024-01-06T05:18:31;84.70;;;48.58;;
20910;SDS011;10615;42.702;23.314;2024-01-06T05:19:32;74.13;;;45.40;;
20910;SDS011;10615;42.702;23.314;2024-01-06T05:20:33;79.57;;;49.75;;
20910;SDS011;10615;42.702;23.314;2024-01-06T05:21:34;82.43;;;50.88;;
20910;SDS011;10615;42.702;23.314;2024-01-06T05:22:35;76.35;;;48.20;;
20910;SDS011;10615;42.702;23.314;2024-01-06T05:23:35;90.32;;;56.05;;
20910;SDS011;10615;42.702;23.314;2024-01-06T05:24:36;93.07;;;57.70;;
20910;SDS011;10615;42.702;23.314;2024-01-06T05:25:37;91.57;;;57.30;;
20910;SDS011;10615;42.702;23.314;2024-01-06T05:26:38;93.15;;;55.80;;
20910;SDS011;10615;42.702;23.314;2024-01-06T05:27:38;90.22;;;55.10;;
20910;SDS011;10615;42.702;23.314;2024-01-06T05:28:39;86.63;;;52.58;;
20910;SDS011;10615;42.702;23.314;2024-01-06T05:29:40;81.03;;;51.25;;
20910;SDS011;10615;42.702;23.314;2024-01-06T05:30:41;81.25;;;51.17;;
20910;SDS011;10615;42.702;23.314;2024-01-06T05:31:41;85.80;;;51.13;;
20910;SDS011;10615;42.702;23.314;2024-01-06T05:32:42;78.20;;;50.80;;
20910;SDS011;10615;42.702;23.314;2024-01-06T05:33:43;79.60;;;50.15;;
20910;SDS011;10615;42.702;23.314;2024-01-06T05:34:44;86.82;;;50.08;;
20910;SDS011;10615;42.702;23.314;2024-01-06T05:35:44;71.05;;;45.50;;
20910;SDS011;10615;42.702;23.314;2024-01-06T05:36:45;74.90;;;45.58;;
20910;SDS011;10615;42.702;23.314;2024-01-06T05:37:46;70.05;;;42.85;;
20910;SDS011;10615;42.702;23.314;2024-01-06T05:38:47;74.80;;;45.35;;
20910;SDS011;10615;42.702;23.314;2024-01-06T05:39:48;73.57;;;46.75;;
20910;SDS011;10615;42.702;23.314;2024-01-06T05:40:49;75.28;;;47.60;;
20910;SDS011;10615;42.702;23.314;2024-01-06T05:41:50;71.25;;;42.83;;
20910;SDS011;10615;42.702;23.314;2024-01-06T05:42:50;36.92;;;24.63;;
20910;SDS011;10615;42.702;23.314;2024-01-06T05:43:52;32.10;;;20.10;;
20910;SDS011;10615;42.702;23.314;2024-01-06T05:44:53;40.65;;;24.65;;
20910;SDS011;10615;42.702;23.314;2024-01-06T05:45:54;35.70;;;23.65;;
20910;SDS011;10615;42.702;23.314;2024-01-06T05:46:55;57.25;;;34.80;;
20910;SDS011;10615;42.702;23.314;2024-01-06T05:47:56;52.95;;;34.58;;
20910;SDS011;10615;42.702;23.314;2024-01-06T05:48:56;51.80;;;31.88;;
20910;SDS011;10615;42.702;23.314;2024-01-06T05:49:57;25.42;;;16.65;;
20910;SDS011;10615;42.702;23.314;2024-01-06T05:50:58;27.88;;;18.15;;